createdAt,value
2019-05-07T00:00:54.930Z,4.97
2019-05-07T00:03:24.410Z,5.33
2019-05-07T00:05:53.989Z,6.53
2019-05-07T00:08:23.015Z,5.20
2019-05-07T00:10:52.922Z,5.87
2019-05-07T00:13:22.747Z,6.03
2019-05-07T00:15:52.801Z,6.55
2019-05-07T00:18:22.963Z,6.53
2019-05-07T00:20:52.986Z,7.20
2019-05-07T00:23:23.233Z,6.08
2019-05-07T00:25:52.901Z,5.90
2019-05-07T00:28:23.122Z,6.33
2019-05-07T00:30:52.187Z,5.87
2019-05-07T00:33:22.694Z,6.33
2019-05-07T00:35:53.041Z,5.90
2019-05-07T00:38:23.117Z,6.45
2019-05-07T00:40:53.198Z,6.72
2019-05-07T00:43:23.233Z,6.53
2019-05-07T00:45:56.998Z,5.60
2019-05-07T00:48:25.737Z,6.50
2019-05-07T00:50:58.293Z,6.90
2019-05-07T00:53:26.829Z,7.28
2019-05-07T00:55:55.168Z,6.37
2019-05-07T00:58:26.781Z,7.78
2019-05-07T01:00:53.602Z,7.17
2019-05-07T01:03:22.294Z,6.37
2019-05-07T01:05:52.692Z,7.62
2019-05-07T01:08:22.596Z,6.80
2019-05-07T01:10:52.863Z,6.90
2019-05-07T01:13:23.186Z,6.25
2019-05-07T01:15:53.192Z,7.72
2019-05-07T01:18:23.374Z,6.72
2019-05-07T01:20:53.246Z,6.30
2019-05-07T01:23:22.859Z,7.00
2019-05-07T01:25:52.885Z,6.75
2019-05-07T01:28:22.299Z,7.42
2019-05-07T01:30:52.886Z,6.25
2019-05-07T01:33:42.394Z,7.05
2019-05-07T01:36:13.242Z,7.30
2019-05-07T01:38:42.739Z,6.90
2019-05-07T01:41:12.521Z,6.78
2019-05-07T01:43:42.954Z,7.65
2019-05-07T01:46:12.265Z,6.80
2019-05-07T01:48:42.953Z,6.42
2019-05-07T01:51:12.862Z,6.67
2019-05-07T01:53:43.028Z,6.45
2019-05-07T01:56:12.417Z,6.90
2019-05-07T01:58:42.462Z,6.75
2019-05-07T02:01:13.122Z,5.97
2019-05-07T02:03:48.855Z,7.00
2019-05-07T02:06:24.749Z,6.30
2019-05-07T02:08:54.751Z,6.67
2019-05-07T02:11:33.979Z,6.78
2019-05-07T02:14:02.768Z,5.92
2019-05-07T02:16:32.644Z,5.78
2019-05-07T02:19:02.198Z,5.95
2019-05-07T02:21:32.791Z,5.70
2019-05-07T02:24:03.177Z,6.17
2019-05-07T02:26:32.155Z,6.30
2019-05-07T02:29:02.572Z,5.87
2019-05-07T02:31:33.599Z,6.40
2019-05-07T02:34:02.748Z,5.85
2019-05-07T02:36:33.892Z,6.10
2019-05-07T02:39:03.821Z,6.15
2019-05-07T02:41:35.810Z,6.00
2019-05-07T02:44:04.496Z,6.12
2019-05-07T02:46:37.255Z,6.55
2019-05-07T02:49:10.269Z,6.08
2019-05-07T02:51:56.693Z,6.40
2019-05-07T02:54:43.805Z,5.97
2019-05-07T02:57:16.563Z,7.22
2019-05-07T02:59:44.049Z,6.87
2019-05-07T03:02:13.921Z,6.42
2019-05-07T03:04:43.622Z,6.65
2019-05-07T03:07:13.225Z,6.67
2019-05-07T03:09:43.194Z,5.35
2019-05-07T03:12:13.150Z,6.80
2019-05-07T03:14:43.836Z,6.58
2019-05-07T03:17:13.260Z,7.20
2019-05-07T03:19:43.653Z,6.03
2019-05-07T03:22:13.951Z,6.65
2019-05-07T03:24:54.441Z,5.80
2019-05-07T03:27:23.689Z,6.67
2019-05-07T03:29:56.728Z,6.58
2019-05-07T03:32:28.007Z,6.87
2019-05-07T03:35:07.985Z,6.90
2019-05-07T03:37:36.797Z,6.67
2019-05-07T03:40:06.455Z,6.95
2019-05-07T03:42:34.888Z,7.15
2019-05-07T03:45:08.106Z,6.92
2019-05-07T03:47:43.904Z,7.30
2019-05-07T03:50:14.691Z,6.40
2019-05-07T03:52:43.909Z,7.25
2019-05-07T03:55:14.513Z,7.28
2019-05-07T03:57:43.583Z,6.72
2019-05-07T04:00:13.301Z,6.60
2019-05-07T04:02:43.678Z,6.12
2019-05-07T04:05:13.956Z,6.35
2019-05-07T04:07:43.063Z,7.65
2019-05-07T04:10:14.730Z,6.40
2019-05-07T04:12:44.237Z,8.78
2019-05-07T04:15:14.564Z,7.95
2019-05-07T04:17:43.111Z,7.97
2019-05-07T04:20:13.367Z,7.28
2019-05-07T04:22:43.107Z,7.45
2019-05-07T04:25:13.595Z,8.15
2019-05-07T04:27:52.580Z,7.62
2019-05-07T04:30:19.863Z,8.05
2019-05-07T04:32:52.931Z,8.53
2019-05-07T04:35:24.437Z,7.28
2019-05-07T04:37:53.375Z,7.30
2019-05-07T04:40:23.962Z,8.80
2019-05-07T04:42:53.907Z,9.33
2019-05-07T04:45:23.099Z,8.23
2019-05-07T04:47:53.865Z,7.85
2019-05-07T04:50:38.304Z,8.30
2019-05-07T04:52:54.045Z,7.60
2019-05-07T04:55:23.043Z,8.33
2019-05-07T04:57:53.377Z,8.48
2019-05-07T05:00:22.902Z,8.68
2019-05-07T05:02:53.360Z,9.80
2019-05-07T05:05:23.533Z,8.60
2019-05-07T05:07:53.422Z,8.65
2019-05-07T05:10:23.083Z,8.15
2019-05-07T05:12:53.614Z,8.68
2019-05-07T05:15:22.265Z,9.25
2019-05-07T05:17:53.579Z,9.08
2019-05-07T05:20:22.299Z,9.05
2019-05-07T05:22:58.516Z,9.53
2019-05-07T05:25:28.452Z,9.58
2019-05-07T05:27:56.886Z,9.48
2019-05-07T05:33:28.772Z,10.13
2019-05-07T05:35:57.154Z,9.80
2019-05-07T05:38:25.622Z,9.88
2019-05-07T05:40:54.114Z,10.98
2019-05-07T05:43:36.210Z,11.12
2019-05-07T05:46:08.896Z,10.75
2019-05-07T05:48:37.366Z,11.03
2019-05-07T05:51:25.917Z,12.28
2019-05-07T05:53:55.952Z,11.20
2019-05-07T05:56:25.970Z,9.98
2019-05-07T05:59:24.122Z,10.55
2019-05-07T06:01:58.017Z,12.07
2019-05-07T06:04:32.859Z,10.68
2019-05-07T06:07:14.610Z,10.48
2019-05-07T06:09:49.381Z,10.40
2019-05-07T06:12:28.554Z,9.48
2019-05-07T06:14:58.666Z,12.25
2019-05-07T06:17:34.541Z,11.20
2019-05-07T06:20:13.644Z,9.63
2019-05-07T06:23:01.983Z,9.78
2019-05-07T06:25:33.383Z,10.48
2019-05-07T06:28:01.916Z,11.30
2019-05-07T06:30:33.711Z,11.93
2019-05-07T06:33:02.866Z,10.50
2019-05-07T06:35:32.435Z,11.12
2019-05-07T06:38:02.900Z,10.23
2019-05-07T06:40:33.011Z,11.40
2019-05-07T06:43:05.716Z,11.95
2019-05-07T06:45:38.789Z,11.05
2019-05-07T06:48:07.160Z,12.88
2019-05-07T06:50:35.526Z,13.78
2019-05-07T06:53:03.929Z,16.12
2019-05-07T06:55:32.581Z,16.02
2019-05-07T06:58:02.676Z,14.80
2019-05-07T07:00:33.054Z,14.87
2019-05-07T07:03:09.001Z,16.23
2019-05-07T07:05:39.043Z,16.30
2019-05-07T07:08:09.155Z,15.58
2019-05-07T07:10:55.692Z,15.58
2019-05-07T07:13:25.976Z,14.83
2019-05-07T07:15:54.457Z,14.70
2019-05-07T07:18:23.164Z,14.13
2019-05-07T07:20:52.434Z,15.25
2019-05-07T07:23:22.618Z,15.83
2019-05-07T07:25:52.243Z,15.48
2019-05-07T07:28:22.086Z,15.30
2019-05-07T07:30:54.866Z,15.23
2019-05-07T07:33:24.994Z,16.07
2019-05-07T07:35:53.288Z,15.98
2019-05-07T07:38:34.979Z,15.18
2019-05-07T07:41:06.801Z,14.53
2019-05-07T07:43:35.194Z,16.10
2019-05-07T07:46:03.562Z,16.40
2019-05-07T07:48:32.204Z,19.02
2019-05-07T07:51:03.008Z,19.70
2019-05-07T07:53:33.115Z,19.92
2019-05-07T07:56:18.688Z,17.80
2019-05-07T07:58:58.045Z,17.20
2019-05-07T08:01:37.153Z,19.95
2019-05-07T08:04:05.526Z,16.42
2019-05-07T08:06:33.990Z,18.20
2019-05-07T08:09:02.400Z,18.02
2019-05-07T08:11:32.312Z,17.23
2019-05-07T08:14:02.353Z,17.73
2019-05-07T08:16:32.736Z,16.82
2019-05-07T08:19:02.869Z,15.93
2019-05-07T08:21:33.021Z,15.50
2019-05-07T08:24:02.793Z,16.27
2019-05-07T08:26:32.302Z,17.23
2019-05-07T08:29:02.774Z,16.25
2019-05-07T08:31:51.727Z,15.35
2019-05-07T08:34:22.000Z,15.98
2019-05-07T08:36:52.610Z,16.25
2019-05-07T08:39:22.345Z,17.07
2019-05-07T08:41:52.646Z,16.32
2019-05-07T08:44:23.026Z,15.53
2019-05-07T08:47:09.615Z,16.00
2019-05-07T08:49:42.576Z,16.57
2019-05-07T08:52:11.818Z,16.10
2019-05-07T08:54:39.872Z,16.35
2019-05-07T08:57:08.249Z,17.70
2019-05-07T08:59:36.637Z,18.00
2019-05-07T09:02:05.195Z,18.25
2019-05-07T09:04:33.663Z,17.70
2019-05-07T09:07:02.621Z,17.67
2019-05-07T09:09:32.426Z,17.20
2019-05-07T09:12:03.116Z,17.60
2019-05-07T09:14:32.051Z,16.50
2019-05-07T09:17:02.550Z,16.40
2019-05-07T09:19:32.197Z,17.82
2019-05-07T09:22:02.252Z,18.30
2019-05-07T09:24:32.957Z,16.35
2019-05-07T09:27:05.470Z,17.95
2019-05-07T09:29:52.190Z,17.52
2019-05-07T09:32:29.754Z,18.25
2019-05-07T09:35:02.471Z,16.17
2019-05-07T09:37:32.606Z,17.67
2019-05-07T09:40:02.798Z,15.78
2019-05-07T09:42:52.405Z,16.97
2019-05-07T09:45:22.306Z,15.85
2019-05-07T09:47:52.269Z,15.50
2019-05-07T09:50:22.023Z,15.38
2019-05-07T09:52:51.794Z,13.80
2019-05-07T09:55:20.405Z,14.15
2019-05-07T09:57:48.793Z,14.73
2019-05-07T10:00:18.345Z,13.58
2019-05-07T10:02:46.747Z,14.03
2019-05-07T10:05:15.163Z,14.50
2019-05-07T10:07:43.538Z,13.45
2019-05-07T10:10:12.154Z,14.93
2019-05-07T10:12:54.327Z,14.15
2019-05-07T10:15:22.648Z,14.75
2019-05-07T10:17:55.593Z,14.78
2019-05-07T10:20:24.151Z,15.38
2019-05-07T10:22:52.545Z,14.98
2019-05-07T10:25:22.446Z,15.10
2019-05-07T10:27:53.023Z,15.83
2019-05-07T10:30:21.878Z,15.25
2019-05-07T10:32:52.525Z,15.40
2019-05-07T10:35:22.766Z,14.70
2019-05-07T10:37:52.810Z,14.47
2019-05-07T10:40:22.431Z,13.48
2019-05-07T10:42:51.905Z,14.53
2019-05-07T10:45:34.447Z,13.60
2019-05-07T10:48:04.482Z,14.30
2019-05-07T10:50:38.961Z,13.53
2019-05-07T10:53:04.513Z,14.15
2019-05-07T10:55:33.006Z,14.13
2019-05-07T10:58:02.995Z,14.68
2019-05-07T11:00:33.160Z,14.95
2019-05-07T11:03:02.354Z,13.35
2019-05-07T11:05:32.642Z,12.78
2019-05-07T11:08:02.259Z,13.60
2019-05-07T11:10:32.693Z,12.53
2019-05-07T11:13:02.317Z,11.97
2019-05-07T11:15:32.716Z,12.45
2019-05-07T11:18:06.432Z,12.00
2019-05-07T11:20:46.535Z,12.03
2019-05-07T11:23:04.796Z,11.83
2019-05-07T11:25:33.201Z,12.75
2019-05-07T11:28:02.821Z,12.40
2019-05-07T11:30:32.074Z,12.05
2019-05-07T11:33:02.490Z,13.48
2019-05-07T11:35:31.900Z,11.90
2019-05-07T11:38:10.932Z,11.80
2019-05-07T11:40:32.204Z,13.25
2019-05-07T11:43:08.348Z,11.55
2019-05-07T11:45:54.047Z,11.95
2019-05-07T11:48:22.124Z,12.20
2019-05-07T11:51:01.489Z,11.73
2019-05-07T11:53:23.960Z,12.47
2019-05-07T11:55:52.433Z,13.40
2019-05-07T11:58:22.011Z,12.25
2019-05-07T12:00:52.285Z,10.28
2019-05-07T12:03:22.135Z,11.75
2019-05-07T12:05:52.511Z,10.85
2019-05-07T12:08:23.674Z,11.25
2019-05-07T12:10:51.822Z,11.43
2019-05-07T12:13:21.838Z,11.20
2019-05-07T12:15:52.089Z,12.63
2019-05-07T12:18:22.487Z,11.88
2019-05-07T12:20:53.859Z,12.88
2019-05-07T12:23:22.449Z,11.73
2019-05-07T12:25:50.349Z,11.60
2019-05-07T12:28:19.483Z,12.03
2019-05-07T12:30:51.619Z,12.37
2019-05-07T12:33:37.503Z,11.30
2019-05-07T12:36:07.472Z,10.43
2019-05-07T12:38:35.818Z,10.85
2019-05-07T12:41:06.870Z,11.12
2019-05-07T12:43:35.222Z,11.97
2019-05-07T12:46:03.626Z,10.68
2019-05-07T12:48:32.031Z,10.08
2019-05-07T12:51:00.387Z,10.15
2019-05-07T12:53:31.938Z,11.25
2019-05-07T12:56:02.182Z,11.35
2019-05-07T12:58:32.289Z,11.95
2019-05-07T13:01:11.562Z,11.40
2019-05-07T13:03:44.451Z,10.03
2019-05-07T13:06:14.201Z,10.72
2019-05-07T13:08:43.302Z,10.45
2019-05-07T13:11:13.267Z,9.40
2019-05-07T13:13:42.325Z,10.75
2019-05-07T13:16:12.638Z,10.55
2019-05-07T13:18:42.274Z,11.55
2019-05-07T13:21:11.924Z,10.93
2019-05-07T13:23:42.185Z,11.18
2019-05-07T13:26:10.794Z,11.57
2019-05-07T13:28:41.977Z,12.10
2019-05-07T13:31:10.134Z,10.90
2019-05-07T13:33:38.729Z,11.75
2019-05-07T13:36:07.103Z,11.93
2019-05-07T13:38:43.360Z,11.33
2019-05-07T13:41:19.477Z,10.58
2019-05-07T13:44:02.908Z,10.18
2019-05-07T13:46:33.915Z,8.75
2019-05-07T13:49:02.241Z,10.45
2019-05-07T13:51:33.834Z,10.90
2019-05-07T13:54:02.228Z,10.63
2019-05-07T13:56:32.498Z,10.53
2019-05-07T13:59:04.660Z,9.95
2019-05-07T14:01:32.834Z,10.55
2019-05-07T14:04:03.795Z,10.10
2019-05-07T14:06:43.059Z,11.28
2019-05-07T14:09:24.396Z,11.38
2019-05-07T14:11:52.965Z,10.88
2019-05-07T14:14:22.327Z,11.75
2019-05-07T14:16:52.953Z,11.28
2019-05-07T14:19:22.475Z,10.03
2019-05-07T14:21:52.543Z,10.98
2019-05-07T14:24:22.402Z,10.40
2019-05-07T14:26:52.764Z,11.10
2019-05-07T14:29:24.464Z,10.58
2019-05-07T14:31:53.560Z,10.75
2019-05-07T14:34:25.126Z,11.28
2019-05-07T14:37:07.155Z,11.28
2019-05-07T14:39:35.549Z,10.85
2019-05-07T14:42:06.447Z,11.43
2019-05-07T14:44:47.551Z,10.00
2019-05-07T14:47:16.851Z,10.48
2019-05-07T14:49:45.232Z,10.18
2019-05-07T14:52:13.622Z,9.08
2019-05-07T14:54:42.839Z,10.08
2019-05-07T14:57:11.553Z,8.83
2019-05-07T14:59:40.161Z,9.55
2019-05-07T15:02:08.641Z,9.03
2019-05-07T15:04:36.937Z,8.18
2019-05-07T15:07:05.314Z,8.03
2019-05-07T15:09:34.203Z,9.75
2019-05-07T15:12:02.821Z,9.05
2019-05-07T15:14:31.878Z,8.03
2019-05-07T15:17:02.673Z,8.73
2019-05-07T15:19:32.190Z,8.43
2019-05-07T15:22:19.007Z,8.55
2019-05-07T15:24:48.399Z,8.65
2019-05-07T15:27:17.241Z,8.60
2019-05-07T15:29:45.809Z,9.48
2019-05-07T15:32:14.165Z,8.63
2019-05-07T15:34:42.679Z,9.05
2019-05-07T15:37:12.303Z,9.40
2019-05-07T15:39:42.147Z,9.08
2019-05-07T15:42:11.799Z,9.55
2019-05-07T15:44:40.263Z,9.20
2019-05-07T15:47:22.697Z,10.15
2019-05-07T15:49:50.928Z,8.70
2019-05-07T15:52:23.823Z,8.65
2019-05-07T15:54:53.143Z,8.98
2019-05-07T15:57:25.753Z,8.28
2019-05-07T15:59:55.718Z,9.50
2019-05-07T16:02:26.482Z,8.98
2019-05-07T16:04:54.842Z,8.53
2019-05-07T16:07:23.447Z,10.03
2019-05-07T16:09:52.579Z,9.70
2019-05-07T16:12:22.709Z,9.80
2019-05-07T16:14:52.430Z,9.48
2019-05-07T16:17:32.916Z,9.75
2019-05-07T16:20:03.187Z,9.60
2019-05-07T16:22:36.360Z,9.08
2019-05-07T16:25:07.433Z,8.68
2019-05-07T16:27:37.652Z,9.38
2019-05-07T16:30:06.388Z,8.35
2019-05-07T16:32:34.740Z,9.00
2019-05-07T16:35:05.735Z,8.88
2019-05-07T16:37:33.236Z,9.40
2019-05-07T16:40:04.584Z,9.05
2019-05-07T16:42:32.204Z,8.85
2019-05-07T16:45:02.746Z,10.13
2019-05-07T16:47:30.712Z,8.65
2019-05-07T16:49:59.041Z,9.25
2019-05-07T16:52:27.401Z,9.30
2019-05-07T16:54:55.808Z,9.53
2019-05-07T16:57:25.930Z,9.65
2019-05-07T16:59:54.302Z,8.38
2019-05-07T17:02:24.514Z,8.65
2019-05-07T17:05:05.571Z,9.40
2019-05-07T17:07:35.730Z,9.78
2019-05-07T17:10:05.645Z,9.28
2019-05-07T17:12:34.839Z,9.18
2019-05-07T17:15:03.758Z,9.35
2019-05-07T17:17:32.331Z,9.60
2019-05-07T17:20:02.712Z,9.18
2019-05-07T17:22:32.379Z,10.13
2019-05-07T17:25:03.155Z,9.78
2019-05-07T17:27:32.220Z,9.53
2019-05-07T17:30:02.764Z,8.98
2019-05-07T17:32:32.142Z,9.80
2019-05-07T17:35:02.570Z,11.33
2019-05-07T17:37:32.126Z,9.18
2019-05-07T17:40:02.973Z,9.65
2019-05-07T17:42:32.723Z,11.57
2019-05-07T17:45:02.975Z,11.20
2019-05-07T17:47:32.199Z,11.18
2019-05-07T17:50:02.140Z,11.68
2019-05-07T17:52:32.404Z,11.83
2019-05-07T17:55:02.185Z,12.55
2019-05-07T17:57:30.722Z,11.73
2019-05-07T17:59:59.222Z,13.70
2019-05-07T18:02:38.428Z,12.65
2019-05-07T18:05:07.332Z,12.35
2019-05-07T18:07:36.871Z,12.28
2019-05-07T18:10:06.869Z,13.43
2019-05-07T18:12:35.738Z,13.53
2019-05-07T18:15:05.061Z,13.95
2019-05-07T18:17:37.915Z,12.85
2019-05-07T18:20:06.395Z,13.83
2019-05-07T18:22:34.755Z,14.90
2019-05-07T18:25:03.702Z,15.15
2019-05-07T18:27:32.984Z,13.93
2019-05-07T18:30:02.861Z,14.70
2019-05-07T18:32:34.055Z,13.93
2019-05-07T18:35:02.520Z,14.60
2019-05-07T18:37:32.462Z,15.58
2019-05-07T18:40:02.515Z,13.68
2019-05-07T18:42:32.604Z,14.45
2019-05-07T18:45:02.089Z,15.23
2019-05-07T18:47:32.964Z,15.40
2019-05-07T18:50:02.833Z,15.75
2019-05-07T18:52:32.025Z,14.90
2019-05-07T18:55:02.567Z,15.35
2019-05-07T18:57:32.662Z,14.58
2019-05-07T19:00:05.012Z,15.35
2019-05-07T19:02:32.412Z,15.80
2019-05-07T19:05:02.856Z,14.43
2019-05-07T19:07:32.429Z,15.88
2019-05-07T19:10:02.663Z,15.13
2019-05-07T19:12:33.916Z,15.85
2019-05-07T19:15:02.929Z,14.33
2019-05-07T19:17:32.257Z,14.80
2019-05-07T19:20:03.217Z,15.25
2019-05-07T19:22:37.962Z,15.15
2019-05-07T19:25:06.233Z,14.53
2019-05-07T19:27:34.725Z,14.47
2019-05-07T19:30:03.195Z,14.90
2019-05-07T19:32:36.280Z,13.68
2019-05-07T19:35:06.010Z,13.85
2019-05-07T19:37:34.471Z,14.03
2019-05-07T19:40:03.585Z,12.93
2019-05-07T19:42:32.988Z,12.25
2019-05-07T19:45:02.619Z,13.38
2019-05-07T19:47:32.694Z,13.48
2019-05-07T19:50:02.416Z,13.68
2019-05-07T19:52:33.126Z,14.40
2019-05-07T19:55:04.715Z,14.47
2019-05-07T19:57:42.519Z,14.58
2019-05-07T20:00:12.132Z,12.50
2019-05-07T20:02:43.087Z,14.20
2019-05-07T20:05:12.216Z,14.93
2019-05-07T20:07:42.333Z,13.38
2019-05-07T20:10:12.165Z,15.35
2019-05-07T20:12:42.754Z,14.30
2019-05-07T20:15:11.029Z,14.80
2019-05-07T20:17:41.800Z,16.02
2019-05-07T20:20:09.592Z,15.75
2019-05-07T20:22:37.986Z,15.55
2019-05-07T20:25:18.492Z,15.25
2019-05-07T20:27:36.649Z,14.93
2019-05-07T20:30:06.160Z,15.25
2019-05-07T20:32:36.103Z,13.78
2019-05-07T20:35:05.437Z,14.93
2019-05-07T20:37:33.868Z,13.62
2019-05-07T20:40:02.959Z,14.45
2019-05-07T20:42:32.416Z,15.23
2019-05-07T20:45:02.966Z,13.68
2019-05-07T20:47:32.573Z,13.85
2019-05-07T20:50:01.049Z,13.75
2019-05-07T20:52:29.468Z,13.25
2019-05-07T20:55:02.190Z,12.55
2019-05-07T20:57:34.947Z,13.13
2019-05-07T21:00:04.772Z,12.93
2019-05-07T21:02:44.394Z,13.60
2019-05-07T21:05:05.488Z,13.22
2019-05-07T21:07:33.737Z,12.65
2019-05-07T21:10:02.216Z,12.60
2019-05-07T21:12:33.260Z,12.10
2019-05-07T21:15:03.403Z,13.13
2019-05-07T21:17:32.269Z,12.15
2019-05-07T21:20:00.816Z,12.68
2019-05-07T21:22:29.202Z,12.63
2019-05-07T21:24:57.427Z,12.50
2019-05-07T21:27:25.725Z,12.50
2019-05-07T21:29:54.043Z,12.85
2019-05-07T21:32:23.119Z,11.83
2019-05-07T21:34:52.732Z,11.75
2019-05-07T21:37:22.877Z,11.85
2019-05-07T21:39:53.156Z,12.98
2019-05-07T21:42:22.907Z,13.55
2019-05-07T21:44:52.684Z,12.80
2019-05-07T21:47:22.191Z,12.58
2019-05-07T21:49:50.581Z,11.65
2019-05-07T21:52:18.914Z,11.57
2019-05-07T21:54:48.813Z,12.60
2019-05-07T21:57:34.190Z,11.63
2019-05-07T22:00:22.106Z,12.68
2019-05-07T22:02:53.272Z,11.43
2019-05-07T22:05:22.444Z,12.43
2019-05-07T22:07:54.150Z,12.45
2019-05-07T22:10:22.211Z,11.53
2019-05-07T22:12:52.016Z,12.53
2019-05-07T22:15:22.483Z,11.35
2019-05-07T22:17:52.087Z,10.85
2019-05-07T22:20:20.738Z,12.03
2019-05-07T22:22:48.949Z,11.35
2019-05-07T22:25:18.420Z,11.55
2019-05-07T22:27:48.442Z,11.15
2019-05-07T22:30:23.208Z,11.35
2019-05-07T22:32:55.845Z,10.50
2019-05-07T22:35:38.240Z,10.10
2019-05-07T22:38:26.481Z,10.65
2019-05-07T22:40:56.515Z,11.15
2019-05-07T22:43:26.127Z,10.75
2019-05-07T22:45:54.707Z,11.20
2019-05-07T22:48:23.063Z,10.35
2019-05-07T22:50:51.949Z,11.80
2019-05-07T22:53:22.070Z,10.85
2019-05-07T22:55:52.502Z,10.38
2019-05-07T22:58:32.584Z,10.45
2019-05-07T23:01:02.779Z,10.40
2019-05-07T23:03:32.267Z,10.30
2019-05-07T23:06:06.824Z,9.98
2019-05-07T23:08:36.584Z,8.80
2019-05-07T23:11:05.518Z,9.05
2019-05-07T23:13:34.014Z,9.50
2019-05-07T23:16:02.652Z,8.98
2019-05-07T23:18:31.872Z,9.33
2019-05-07T23:21:00.458Z,9.28
2019-05-07T23:23:28.767Z,8.38
2019-05-07T23:25:57.107Z,8.50
2019-05-07T23:28:25.464Z,8.63
2019-05-07T23:30:53.798Z,8.30
2019-05-07T23:33:22.689Z,8.20
2019-05-07T23:35:52.789Z,9.18
2019-05-07T23:38:22.532Z,8.85
2019-05-07T23:41:02.185Z,8.85
2019-05-07T23:43:30.682Z,8.28
2019-05-07T23:45:59.089Z,9.65
2019-05-07T23:48:27.277Z,8.45
2019-05-07T23:50:55.670Z,8.88
2019-05-07T23:53:24.023Z,8.93
2019-05-07T23:55:52.225Z,8.88
2019-05-07T23:58:23.146Z,8.60
